createdAt,value
2022-12-12T00:01:19.999Z,4.45
2022-12-12T00:03:47.136Z,4.47
2022-12-12T00:06:14.171Z,4.18
2022-12-12T00:08:41.547Z,4.20
2022-12-12T00:11:08.833Z,3.92
2022-12-12T00:13:37.235Z,4.38
2022-12-12T00:16:08.632Z,4.03
2022-12-12T00:18:39.414Z,5.07
2022-12-12T00:21:11.303Z,3.78
2022-12-12T00:23:38.313Z,3.97
2022-12-12T00:26:08.843Z,4.75
2022-12-12T00:28:35.745Z,4.10
2022-12-12T00:31:02.719Z,4.30
2022-12-12T00:33:29.558Z,4.20
2022-12-12T00:35:56.359Z,4.22
2022-12-12T00:38:24.448Z,4.07
2022-12-12T00:40:56.849Z,4.03
2022-12-12T00:43:24.101Z,4.53
2022-12-12T00:45:51.087Z,4.63
2022-12-12T00:48:18.506Z,4.28
2022-12-12T00:50:45.672Z,4.78
2022-12-12T00:53:13.457Z,4.13
2022-12-12T00:55:40.581Z,3.65
2022-12-12T00:58:07.537Z,3.58
2022-12-12T01:00:34.729Z,4.55
2022-12-12T01:03:01.815Z,4.28
2022-12-12T01:05:28.919Z,4.00
2022-12-12T01:07:55.769Z,3.97
2022-12-12T01:10:22.860Z,3.55
2022-12-12T01:12:49.740Z,3.38
2022-12-12T01:15:16.733Z,3.88
2022-12-12T01:17:43.746Z,4.65
2022-12-12T01:20:22.781Z,3.60
2022-12-12T01:22:50.217Z,3.65
2022-12-12T01:25:18.481Z,3.42
2022-12-12T01:27:46.082Z,3.90
2022-12-12T01:30:16.338Z,4.18
2022-12-12T01:32:43.140Z,3.92
2022-12-12T01:35:11.231Z,3.50
2022-12-12T01:37:40.554Z,3.80
2022-12-12T01:40:11.716Z,4.00
2022-12-12T01:42:40.349Z,3.78
2022-12-12T01:45:08.157Z,4.88
2022-12-12T01:47:35.028Z,4.22
2022-12-12T01:50:09.356Z,3.53
2022-12-12T01:52:45.123Z,3.92
2022-12-12T01:55:19.333Z,3.72
2022-12-12T01:57:49.849Z,4.22
2022-12-12T02:00:16.781Z,4.50
2022-12-12T02:02:46.362Z,3.83
2022-12-12T02:05:27.049Z,4.00
2022-12-12T02:07:54.665Z,3.45
2022-12-12T02:10:22.004Z,3.75
2022-12-12T02:12:49.119Z,4.28
2022-12-12T02:15:16.160Z,3.72
2022-12-12T02:17:51.747Z,3.72
2022-12-12T02:20:24.584Z,3.55
2022-12-12T02:22:57.594Z,4.30
2022-12-12T02:25:42.656Z,4.22
2022-12-12T02:28:28.229Z,4.55
2022-12-12T02:31:26.891Z,4.15
2022-12-12T02:34:35.500Z,4.18
2022-12-12T02:37:20.649Z,4.43
2022-12-12T02:40:11.841Z,4.53
2022-12-12T02:42:41.649Z,4.13
2022-12-12T02:45:38.354Z,4.20
2022-12-12T02:48:30.747Z,4.97
2022-12-12T02:51:01.184Z,4.22
2022-12-12T02:53:28.247Z,4.07
2022-12-12T02:56:39.997Z,3.90
2022-12-12T02:59:07.350Z,4.10
2022-12-12T03:01:39.842Z,3.92
2022-12-12T03:04:35.561Z,3.67
2022-12-12T03:07:36.728Z,4.35
2022-12-12T03:10:13.291Z,4.47
2022-12-12T03:12:49.381Z,3.63
2022-12-12T03:15:20.419Z,4.00
2022-12-12T03:17:56.980Z,4.10
2022-12-12T03:21:15.895Z,3.60
2022-12-12T03:23:51.298Z,3.80
2022-12-12T03:26:28.605Z,4.30
2022-12-12T03:29:05.836Z,4.28
2022-12-12T03:31:37.681Z,4.53
2022-12-12T03:34:10.309Z,4.40
2022-12-12T03:36:45.106Z,4.25
2022-12-12T03:39:24.678Z,4.30
2022-12-12T03:42:01.298Z,3.70
2022-12-12T03:44:41.780Z,4.20
2022-12-12T03:47:17.913Z,4.85
2022-12-12T03:49:51.180Z,3.97
2022-12-12T03:52:28.390Z,4.80
2022-12-12T03:55:07.649Z,4.03
2022-12-12T03:57:52.488Z,4.35
2022-12-12T04:03:20.069Z,3.90
2022-12-12T04:06:27.567Z,3.85
2022-12-12T04:09:18.257Z,4.03
2022-12-12T04:12:24.827Z,3.90
2022-12-12T04:15:10.930Z,4.75
2022-12-12T04:17:43.078Z,4.43
2022-12-12T04:20:40.931Z,4.68
2022-12-12T04:23:40.494Z,4.00
2022-12-12T04:26:39.182Z,3.83
2022-12-12T04:29:15.045Z,4.50
2022-12-12T04:31:49.551Z,3.92
2022-12-12T04:34:27.501Z,4.60
2022-12-12T04:36:55.858Z,4.10
2022-12-12T04:39:23.746Z,4.15
2022-12-12T04:41:53.617Z,4.10
2022-12-12T04:44:23.368Z,4.50
2022-12-12T04:46:54.492Z,4.30
2022-12-12T04:49:27.501Z,4.32
2022-12-12T04:52:02.468Z,4.80
2022-12-12T04:54:52.356Z,3.90
2022-12-12T04:57:30.515Z,4.10
2022-12-12T04:59:57.454Z,4.40
2022-12-12T05:02:39.737Z,3.75
2022-12-12T05:05:21.908Z,4.60
2022-12-12T05:08:06.576Z,4.35
2022-12-12T05:10:34.031Z,4.15
2022-12-12T05:13:01.547Z,3.78
2022-12-12T05:15:29.901Z,3.95
2022-12-12T05:18:02.003Z,3.97
2022-12-12T05:20:29.174Z,4.70
2022-12-12T05:22:56.227Z,4.03
2022-12-12T05:25:23.081Z,4.07
2022-12-12T05:27:49.997Z,4.03
2022-12-12T05:30:17.151Z,3.65
2022-12-12T05:32:44.063Z,3.78
2022-12-12T05:35:11.832Z,3.83
2022-12-12T05:37:39.214Z,4.28
2022-12-12T05:40:07.769Z,4.20
2022-12-12T05:42:34.911Z,4.55
2022-12-12T05:45:02.129Z,4.20
2022-12-12T05:47:29.098Z,4.20
2022-12-12T05:49:56.056Z,4.05
2022-12-12T05:52:23.124Z,3.88
2022-12-12T05:54:50.499Z,3.70
2022-12-12T05:57:19.169Z,4.53
2022-12-12T05:59:47.013Z,4.72
2022-12-12T06:02:16.065Z,4.70
2022-12-12T06:04:43.413Z,4.32
2022-12-12T06:07:10.331Z,4.13
2022-12-12T06:09:37.294Z,5.43
2022-12-12T06:12:04.241Z,4.53
2022-12-12T06:14:31.029Z,4.22
2022-12-12T06:16:58.012Z,3.50
2022-12-12T06:19:24.963Z,4.10
2022-12-12T06:21:52.074Z,4.38
2022-12-12T06:24:18.859Z,4.05
2022-12-12T06:26:45.598Z,3.80
2022-12-12T06:29:13.042Z,4.18
2022-12-12T06:31:40.049Z,4.72
2022-12-12T06:34:07.053Z,4.50
2022-12-12T06:36:34.190Z,3.78
2022-12-12T06:39:01.880Z,4.15
2022-12-12T06:41:30.877Z,4.50
2022-12-12T06:43:57.857Z,4.50
2022-12-12T06:46:27.677Z,4.32
2022-12-12T06:48:56.469Z,4.03
2022-12-12T06:51:26.629Z,4.30
2022-12-12T06:53:54.017Z,4.25
2022-12-12T06:56:24.162Z,3.40
2022-12-12T06:58:52.051Z,3.95
2022-12-12T07:01:21.755Z,5.32
2022-12-12T07:03:50.925Z,4.00
2022-12-12T07:06:19.869Z,3.97
2022-12-12T07:08:48.316Z,4.72
2022-12-12T07:11:22.033Z,4.00
2022-12-12T07:13:48.836Z,4.17
2022-12-12T07:16:16.467Z,3.92
2022-12-12T07:18:43.484Z,4.25
2022-12-12T07:21:13.573Z,3.80
2022-12-12T07:23:40.569Z,3.97
2022-12-12T07:26:11.594Z,4.20
2022-12-12T07:28:38.456Z,4.40
2022-12-12T07:31:07.619Z,3.85
2022-12-12T07:33:43.192Z,4.55
2022-12-12T07:36:11.539Z,4.45
2022-12-12T07:38:38.702Z,3.88
2022-12-12T07:41:14.387Z,3.95
2022-12-12T07:43:44.910Z,4.13
2022-12-12T07:46:16.285Z,3.67
2022-12-12T07:48:43.487Z,3.78
2022-12-12T07:51:10.523Z,3.85
2022-12-12T07:53:37.409Z,4.13
2022-12-12T07:56:12.482Z,3.63
2022-12-12T07:58:39.973Z,4.00
2022-12-12T08:01:17.269Z,3.67
2022-12-12T08:03:45.480Z,3.97
2022-12-12T08:06:13.272Z,4.10
2022-12-12T08:08:40.327Z,4.13
2022-12-12T08:11:09.515Z,3.60
2022-12-12T08:13:38.209Z,3.55
2022-12-12T08:16:07.372Z,3.58
2022-12-12T08:18:34.992Z,3.80
2022-12-12T08:21:02.008Z,3.80
2022-12-12T08:23:28.913Z,4.55
2022-12-12T08:25:56.018Z,4.47
2022-12-12T08:28:22.726Z,3.90
2022-12-12T08:30:51.096Z,3.53
2022-12-12T08:33:18.336Z,4.13
2022-12-12T08:35:45.523Z,4.15
2022-12-12T08:38:12.693Z,3.50
2022-12-12T08:40:40.129Z,3.33
2022-12-12T08:43:07.307Z,3.90
2022-12-12T08:45:34.449Z,3.67
2022-12-12T08:48:01.306Z,3.50
2022-12-12T08:50:28.085Z,3.97
2022-12-12T08:52:55.019Z,3.65
2022-12-12T08:55:22.690Z,3.47
2022-12-12T08:57:49.546Z,3.35
2022-12-12T09:00:17.329Z,3.90
2022-12-12T09:02:44.983Z,3.65
2022-12-12T09:05:12.268Z,3.65
2022-12-12T09:07:40.034Z,3.78
2022-12-12T09:10:07.379Z,4.05
2022-12-12T09:12:38.387Z,3.67
2022-12-12T09:15:09.757Z,3.60
2022-12-12T09:17:37.362Z,3.40
2022-12-12T09:20:04.784Z,3.15
2022-12-12T09:22:31.789Z,3.25
2022-12-12T09:24:58.755Z,3.03
2022-12-12T09:27:25.666Z,3.38
2022-12-12T09:29:52.763Z,4.10
2022-12-12T09:32:24.405Z,3.80
2022-12-12T09:34:52.173Z,3.40
2022-12-12T09:37:19.351Z,4.07
2022-12-12T09:39:46.225Z,3.50
2022-12-12T09:42:23.342Z,3.67
2022-12-12T09:44:53.144Z,3.30
2022-12-12T09:47:37.238Z,3.35
2022-12-12T09:50:17.225Z,2.95
2022-12-12T09:52:44.863Z,3.83
2022-12-12T09:55:17.849Z,3.28
2022-12-12T09:57:54.642Z,3.03
2022-12-12T10:00:21.773Z,3.15
2022-12-12T10:03:07.113Z,3.72
2022-12-12T10:05:51.220Z,3.47
2022-12-12T10:08:32.011Z,3.25
2022-12-12T10:11:07.331Z,3.35
2022-12-12T10:13:36.607Z,2.90
2022-12-12T10:16:09.379Z,3.22
2022-12-12T10:18:39.576Z,3.20
2022-12-12T10:21:14.474Z,3.50
2022-12-12T10:24:31.268Z,2.65
2022-12-12T10:26:59.854Z,3.20
2022-12-12T10:29:27.614Z,3.45
2022-12-12T10:32:12.889Z,2.95
2022-12-12T10:34:56.947Z,2.95
2022-12-12T10:37:36.008Z,2.55
2022-12-12T10:40:21.478Z,3.35
2022-12-12T10:43:09.444Z,3.15
2022-12-12T10:45:44.562Z,3.28
2022-12-12T10:48:11.878Z,3.33
2022-12-12T10:50:54.269Z,3.20
2022-12-12T10:53:22.167Z,3.45
2022-12-12T10:56:09.663Z,3.67
2022-12-12T10:58:40.197Z,3.40
2022-12-12T11:01:38.519Z,3.40
2022-12-12T11:04:07.552Z,3.00
2022-12-12T11:06:39.486Z,3.22
2022-12-12T11:09:28.358Z,3.75
2022-12-12T11:12:10.091Z,3.80
2022-12-12T11:14:39.958Z,3.00
2022-12-12T11:17:25.536Z,3.47
2022-12-12T11:19:54.649Z,3.45
2022-12-12T11:22:21.937Z,3.72
2022-12-12T11:24:50.440Z,2.90
2022-12-12T11:27:22.768Z,3.70
2022-12-12T11:29:53.612Z,3.85
2022-12-12T11:32:26.231Z,3.38
2022-12-12T11:34:56.909Z,3.60
2022-12-12T11:37:27.750Z,3.30
2022-12-12T11:39:57.348Z,3.35
2022-12-12T11:42:30.228Z,3.80
2022-12-12T11:45:17.095Z,3.65
2022-12-12T11:47:46.464Z,3.85
2022-12-12T11:50:29.500Z,4.70
2022-12-12T11:53:01.747Z,3.53
2022-12-12T11:55:41.541Z,3.53
2022-12-12T11:58:14.650Z,3.70
2022-12-12T12:00:56.827Z,3.63
2022-12-12T12:03:23.733Z,3.92
2022-12-12T12:06:00.028Z,3.95
2022-12-12T12:08:30.005Z,3.63
2022-12-12T12:10:56.843Z,4.03
2022-12-12T12:13:45.145Z,4.03
2022-12-12T12:16:33.171Z,3.75
2022-12-12T12:19:25.593Z,3.90
2022-12-12T12:22:11.360Z,4.65
2022-12-12T12:24:51.197Z,4.00
2022-12-12T12:27:26.757Z,4.22
2022-12-12T12:30:24.815Z,4.40
2022-12-12T12:33:19.423Z,3.97
2022-12-12T12:35:52.215Z,4.78
2022-12-12T12:38:22.167Z,4.30
2022-12-12T12:40:55.009Z,4.10
2022-12-12T12:43:31.012Z,4.07
2022-12-12T12:46:20.099Z,4.25
2022-12-12T12:49:03.737Z,4.57
2022-12-12T12:51:50.670Z,3.72
2022-12-12T12:54:26.181Z,4.45
2022-12-12T12:57:02.968Z,4.60
2022-12-12T12:59:38.953Z,3.90
2022-12-12T13:02:25.203Z,4.38
2022-12-12T13:05:07.566Z,4.00
2022-12-12T13:07:43.154Z,4.10
2022-12-12T13:10:27.474Z,4.07
2022-12-12T13:13:00.115Z,4.20
2022-12-12T13:15:47.109Z,4.93
2022-12-12T13:18:18.333Z,4.72
2022-12-12T13:21:14.470Z,4.80
2022-12-12T13:24:03.769Z,4.25
2022-12-12T13:26:35.301Z,4.18
2022-12-12T13:29:13.346Z,4.03
2022-12-12T13:32:30.815Z,4.63
2022-12-12T13:35:04.436Z,4.82
2022-12-12T13:37:36.722Z,4.40
2022-12-12T13:40:06.960Z,3.88
2022-12-12T13:43:09.436Z,4.10
2022-12-12T13:45:41.277Z,4.00
2022-12-12T13:48:27.579Z,4.30
2022-12-12T13:51:28.389Z,4.40
2022-12-12T13:54:12.583Z,3.97
2022-12-12T13:59:23.768Z,4.22
2022-12-12T14:01:53.301Z,3.38
2022-12-12T14:04:36.926Z,3.95
2022-12-12T14:07:15.135Z,4.15
2022-12-12T14:09:49.082Z,3.85
2022-12-12T14:12:29.128Z,4.65
2022-12-12T14:15:06.306Z,3.58
2022-12-12T14:17:42.352Z,4.65
2022-12-12T14:20:31.777Z,3.55
2022-12-12T14:23:10.967Z,3.55
2022-12-12T14:25:40.195Z,4.05
2022-12-12T14:28:29.166Z,4.90
2022-12-12T14:31:06.483Z,4.43
2022-12-12T14:33:52.989Z,5.60
2022-12-12T14:36:50.747Z,4.18
2022-12-12T14:39:38.849Z,3.75
2022-12-12T14:42:08.136Z,3.83
2022-12-12T14:44:47.802Z,3.95
2022-12-12T14:47:20.473Z,3.83
2022-12-12T14:49:47.846Z,4.22
2022-12-12T14:52:24.304Z,3.88
2022-12-12T14:54:51.796Z,3.85
2022-12-12T14:57:23.095Z,3.88
2022-12-12T14:59:50.755Z,4.20
2022-12-12T15:02:21.732Z,4.00
2022-12-12T15:04:53.365Z,3.60
2022-12-12T15:07:31.950Z,3.78
2022-12-12T15:09:59.497Z,3.85
2022-12-12T15:12:35.146Z,3.97
2022-12-12T15:15:02.925Z,4.05
2022-12-12T15:17:37.030Z,3.80
2022-12-12T15:20:17.737Z,3.22
2022-12-12T15:22:57.346Z,3.80
2022-12-12T15:25:30.340Z,3.88
2022-12-12T15:27:58.198Z,3.75
2022-12-12T15:30:39.397Z,4.70
2022-12-12T15:33:08.810Z,3.90
2022-12-12T15:35:35.933Z,3.90
2022-12-12T15:38:07.954Z,4.15
2022-12-12T15:40:36.527Z,3.47
2022-12-12T15:43:28.142Z,4.07
2022-12-12T15:45:56.496Z,3.53
2022-12-12T15:48:25.737Z,3.60
2022-12-12T15:50:59.433Z,3.53
2022-12-12T15:53:33.091Z,3.58
2022-12-12T15:56:02.037Z,3.47
2022-12-12T15:58:32.762Z,2.90
2022-12-12T16:01:21.669Z,3.38
2022-12-12T16:04:20.579Z,2.90
2022-12-12T16:06:48.861Z,3.10
2022-12-12T16:09:33.905Z,3.28
2022-12-12T16:12:00.990Z,3.28
2022-12-12T16:14:41.697Z,3.67
2022-12-12T16:17:25.933Z,3.17
2022-12-12T16:20:02.733Z,3.45
2022-12-12T16:22:39.967Z,3.40
2022-12-12T16:25:21.468Z,2.60
2022-12-12T16:27:54.971Z,3.17
2022-12-12T16:30:21.881Z,3.00
2022-12-12T16:32:48.844Z,3.08
2022-12-12T16:35:18.473Z,2.83
2022-12-12T16:37:45.692Z,2.95
2022-12-12T16:40:14.942Z,3.17
2022-12-12T16:42:44.539Z,2.65
2022-12-12T16:45:13.066Z,2.75
2022-12-12T16:47:40.463Z,2.78
2022-12-12T16:50:07.742Z,2.60
2022-12-12T16:52:34.862Z,2.80
2022-12-12T16:55:02.133Z,2.95
2022-12-12T16:57:29.043Z,2.90
2022-12-12T16:59:55.871Z,2.95
2022-12-12T17:02:24.261Z,3.13
2022-12-12T17:04:51.866Z,2.70
2022-12-12T17:07:19.265Z,2.67
2022-12-12T17:09:46.027Z,2.83
2022-12-12T17:12:13.338Z,2.75
2022-12-12T17:14:40.326Z,2.85
2022-12-12T17:17:07.222Z,2.65
2022-12-12T17:19:34.270Z,2.55
2022-12-12T17:22:01.441Z,2.40
2022-12-12T17:24:28.935Z,2.47
2022-12-12T17:26:55.963Z,2.90
2022-12-12T17:29:22.910Z,2.63
2022-12-12T17:31:49.875Z,2.60
2022-12-12T17:34:17.081Z,2.40
2022-12-12T17:36:43.952Z,2.22
2022-12-12T17:39:11.395Z,2.42
2022-12-12T17:41:38.326Z,2.97
2022-12-12T17:44:05.272Z,2.55
2022-12-12T17:46:32.944Z,2.63
2022-12-12T17:49:02.123Z,2.58
2022-12-12T17:51:29.752Z,2.67
2022-12-12T17:53:59.086Z,2.97
2022-12-12T17:56:26.743Z,3.00
2022-12-12T17:58:54.817Z,2.42
2022-12-12T18:01:25.886Z,2.47
2022-12-12T18:03:53.636Z,2.65
2022-12-12T18:06:22.297Z,2.83
2022-12-12T18:08:50.202Z,2.92
2022-12-12T18:11:19.717Z,2.20
2022-12-12T18:13:50.509Z,2.58
2022-12-12T18:16:18.471Z,2.45
2022-12-12T18:18:45.593Z,2.53
2022-12-12T18:24:05.510Z,2.15
2022-12-12T18:26:32.480Z,2.40
2022-12-12T18:29:01.749Z,2.85
2022-12-12T18:31:29.691Z,3.20
2022-12-12T18:33:57.279Z,2.45
2022-12-12T18:36:29.451Z,2.55
2022-12-12T18:38:57.740Z,2.20
2022-12-12T18:41:24.941Z,2.40
2022-12-12T18:43:51.813Z,2.45
2022-12-12T18:46:20.974Z,2.42
2022-12-12T18:48:48.985Z,1.80
2022-12-12T18:51:22.930Z,2.22
2022-12-12T18:53:51.254Z,2.53
2022-12-12T18:56:26.829Z,2.47
2022-12-12T18:58:54.823Z,2.40
2022-12-12T19:01:25.339Z,2.40
2022-12-12T19:03:54.380Z,2.47
2022-12-12T19:06:24.381Z,2.00
2022-12-12T19:08:53.248Z,2.15
2022-12-12T19:11:20.270Z,2.17
2022-12-12T19:13:47.425Z,2.45
2022-12-12T19:16:17.472Z,2.10
2022-12-12T19:18:45.860Z,2.42
2022-12-12T19:21:19.719Z,2.10
2022-12-12T19:23:47.261Z,2.20
2022-12-12T19:26:26.279Z,2.20
2022-12-12T19:28:56.555Z,2.15
2022-12-12T19:31:24.816Z,2.10
2022-12-12T19:33:52.710Z,2.10
2022-12-12T19:36:27.356Z,2.20
2022-12-12T19:41:24.003Z,2.53
2022-12-12T19:43:52.569Z,1.80
2022-12-12T19:46:21.909Z,2.25
2022-12-12T19:48:49.294Z,2.60
2022-12-12T19:51:18.892Z,2.33
2022-12-12T19:53:52.224Z,1.83
2022-12-12T19:56:28.041Z,2.08
2022-12-12T19:58:56.347Z,2.50
2022-12-12T20:01:28.552Z,2.13
2022-12-12T20:04:05.678Z,2.05
2022-12-12T20:06:46.894Z,2.17
2022-12-12T20:09:19.705Z,2.20
2022-12-12T20:11:47.552Z,2.30
2022-12-12T20:14:18.076Z,2.70
2022-12-12T20:16:45.276Z,2.03
2022-12-12T20:19:13.665Z,2.70
2022-12-12T20:22:00.352Z,2.20
2022-12-12T20:24:31.470Z,1.80
2022-12-12T20:26:59.594Z,2.15
2022-12-12T20:29:29.854Z,2.35
2022-12-12T20:31:57.072Z,2.88
2022-12-12T20:34:25.135Z,2.15
2022-12-12T20:36:52.886Z,2.00
2022-12-12T20:39:22.253Z,2.08
2022-12-12T20:41:49.967Z,2.42
2022-12-12T20:44:16.894Z,2.03
2022-12-12T20:46:46.096Z,2.05
2022-12-12T20:49:16.322Z,1.90
2022-12-12T20:52:00.396Z,2.35
2022-12-12T20:54:29.414Z,1.90
2022-12-12T20:56:58.319Z,2.35
2022-12-12T20:59:26.001Z,1.90
2022-12-12T21:01:53.592Z,1.70
2022-12-12T21:04:24.208Z,2.25
2022-12-12T21:06:52.089Z,2.20
2022-12-12T21:09:25.884Z,2.35
2022-12-12T21:11:55.272Z,1.52
2022-12-12T21:14:22.330Z,2.03
2022-12-12T21:16:49.345Z,2.00
2022-12-12T21:19:17.228Z,2.08
2022-12-12T21:21:44.598Z,1.70
2022-12-12T21:24:13.152Z,1.52
2022-12-12T21:26:40.152Z,2.25
2022-12-12T21:29:07.300Z,2.08
2022-12-12T21:31:38.060Z,2.00
2022-12-12T21:34:06.062Z,2.17
2022-12-12T21:36:33.401Z,1.95
2022-12-12T21:39:01.777Z,2.10
2022-12-12T21:41:28.994Z,1.75
2022-12-12T21:43:59.724Z,1.90
2022-12-12T21:46:28.627Z,1.65
2022-12-12T21:49:14.041Z,1.58
2022-12-12T21:51:41.688Z,1.90
2022-12-12T21:54:10.241Z,1.60
2022-12-12T21:56:37.019Z,2.20
2022-12-12T21:59:04.158Z,2.13
2022-12-12T22:01:34.640Z,1.88
2022-12-12T22:04:04.161Z,1.63
2022-12-12T22:06:33.070Z,1.80
2022-12-12T22:09:01.722Z,1.70
2022-12-12T22:11:41.641Z,2.00
2022-12-12T22:14:17.584Z,1.90
2022-12-12T22:16:44.863Z,1.88
2022-12-12T22:19:14.329Z,1.67
2022-12-12T22:21:41.717Z,2.22
2022-12-12T22:24:09.058Z,1.85
2022-12-12T22:26:38.956Z,2.00
2022-12-12T22:29:08.819Z,2.08
2022-12-12T22:31:37.815Z,2.60
2022-12-12T22:34:07.414Z,2.97
2022-12-12T22:36:36.610Z,1.90
2022-12-12T22:39:05.734Z,2.05
2022-12-12T22:41:33.009Z,2.00
2022-12-12T22:44:05.414Z,1.88
2022-12-12T22:46:33.307Z,2.15
2022-12-12T22:49:11.291Z,2.05
2022-12-12T22:51:38.735Z,1.95
2022-12-12T22:54:06.084Z,2.30
2022-12-12T22:56:35.824Z,1.83
2022-12-12T22:59:03.933Z,2.00
2022-12-12T23:01:31.033Z,2.05
2022-12-12T23:03:58.346Z,1.95
2022-12-12T23:06:30.673Z,1.63
2022-12-12T23:09:03.371Z,2.10
2022-12-12T23:11:31.663Z,2.17
2022-12-12T23:14:07.425Z,2.13
2022-12-12T23:16:35.928Z,2.13
2022-12-12T23:19:04.912Z,1.90
2022-12-12T23:21:31.940Z,2.30
2022-12-12T23:23:59.284Z,2.60
2022-12-12T23:26:30.209Z,3.00
2022-12-12T23:28:58.877Z,2.28
2022-12-12T23:31:32.340Z,2.22
2022-12-12T23:34:03.206Z,2.25
2022-12-12T23:36:30.532Z,2.10
2022-12-12T23:39:03.049Z,2.33
2022-12-12T23:41:30.545Z,2.42
2022-12-12T23:43:57.966Z,1.73
2022-12-12T23:46:28.660Z,2.33
2022-12-12T23:49:13.014Z,2.30
2022-12-12T23:52:06.225Z,2.00
2022-12-12T23:54:33.851Z,2.22
2022-12-12T23:57:03.672Z,2.65
2022-12-12T23:59:30.710Z,2.25
